Pinedale, Arizona
Current Conditions -  °F | °C
As of 1:15 PM on Monday 26 Jan 2015 (Local Time) from KSOW Reporting Station
Clear Clear  
Wind Chill: 50°   Ceiling: Unl
Heat Index: 50°   Visibility: 10mi
Dew Point: 25°   Wind: 0mph
Humidity: 37%   Direction: NA
Pressure: 30.31"   Gusts: NA
Location:  34.31°N, 110.25°W
Report Text: KSOW 262015Z AUTO 00000KT 10SM CLR 10/M04 A3031 RMK AO2
Loading
Personal Weather Stations






























Interactive Weather Map New forecast layout! Learn more

10-Day Weather Forecast

Advertisements
Track Severe Weather on mobile